sensor_id;sensor_type;location;lat;lon;timestamp;P1;durP1;ratioP1;P2;durP2;ratioP2
22521;SDS011;11427;51.062;17.044;2023-02-25T00:14:48;4.47;;;4.07;;
22521;SDS011;11427;51.062;17.044;2023-02-25T00:29:50;3.70;;;3.30;;
22521;SDS011;11427;51.062;17.044;2023-02-25T00:44:53;5.13;;;4.30;;
22521;SDS011;11427;51.062;17.044;2023-02-25T00:59:56;4.13;;;3.72;;
22521;SDS011;11427;51.062;17.044;2023-02-25T01:14:59;5.57;;;3.63;;
22521;SDS011;11427;51.062;17.044;2023-02-25T01:30:00;7.65;;;4.65;;
22521;SDS011;11427;51.062;17.044;2023-02-25T01:45:23;8.60;;;6.00;;
22521;SDS011;11427;51.062;17.044;2023-02-25T02:00:28;11.60;;;7.20;;
22521;SDS011;11427;51.062;17.044;2023-02-25T02:15:34;7.75;;;6.47;;
22521;SDS011;11427;51.062;17.044;2023-02-25T02:45:51;9.95;;;7.93;;
22521;SDS011;11427;51.062;17.044;2023-02-25T03:01:10;7.55;;;6.40;;
22521;SDS011;11427;51.062;17.044;2023-02-25T03:16:18;6.43;;;5.40;;
22521;SDS011;11427;51.062;17.044;2023-02-25T03:31:24;7.30;;;4.90;;
22521;SDS011;11427;51.062;17.044;2023-02-25T03:46:32;5.63;;;4.57;;
22521;SDS011;11427;51.062;17.044;2023-02-25T04:01:36;6.70;;;4.82;;
22521;SDS011;11427;51.062;17.044;2023-02-25T04:16:40;6.55;;;4.05;;
22521;SDS011;11427;51.062;17.044;2023-02-25T04:31:42;8.52;;;4.00;;
22521;SDS011;11427;51.062;17.044;2023-02-25T04:46:44;7.00;;;3.00;;
22521;SDS011;11427;51.062;17.044;2023-02-25T05:01:46;6.10;;;2.83;;
22521;SDS011;11427;51.062;17.044;2023-02-25T05:16:48;6.50;;;2.85;;
22521;SDS011;11427;51.062;17.044;2023-02-25T05:31:50;5.75;;;2.97;;
22521;SDS011;11427;51.062;17.044;2023-02-25T05:46:53;5.03;;;2.92;;
22521;SDS011;11427;51.062;17.044;2023-02-25T06:01:55;6.00;;;2.40;;
22521;SDS011;11427;51.062;17.044;2023-02-25T06:16:57;3.03;;;2.17;;
22521;SDS011;11427;51.062;17.044;2023-02-25T06:31:59;3.95;;;2.00;;
22521;SDS011;11427;51.062;17.044;2023-02-25T06:47:01;4.20;;;2.92;;
22521;SDS011;11427;51.062;17.044;2023-02-25T07:02:03;4.55;;;3.47;;
22521;SDS011;11427;51.062;17.044;2023-02-25T07:17:05;2.92;;;2.65;;
22521;SDS011;11427;51.062;17.044;2023-02-25T07:32:08;3.63;;;2.30;;
22521;SDS011;11427;51.062;17.044;2023-02-25T07:47:10;3.45;;;2.83;;
22521;SDS011;11427;51.062;17.044;2023-02-25T08:02:12;2.92;;;2.38;;
22521;SDS011;11427;51.062;17.044;2023-02-25T08:17:15;4.10;;;2.72;;
22521;SDS011;11427;51.062;17.044;2023-02-25T08:32:18;2.97;;;2.70;;
22521;SDS011;11427;51.062;17.044;2023-02-25T08:47:21;3.90;;;2.97;;
22521;SDS011;11427;51.062;17.044;2023-02-25T09:02:23;4.15;;;3.30;;
22521;SDS011;11427;51.062;17.044;2023-02-25T09:17:25;5.88;;;3.88;;
22521;SDS011;11427;51.062;17.044;2023-02-25T09:32:27;3.55;;;3.08;;
22521;SDS011;11427;51.062;17.044;2023-02-25T09:47:44;4.30;;;3.45;;
22521;SDS011;11427;51.062;17.044;2023-02-25T10:02:58;2.90;;;2.70;;
22521;SDS011;11427;51.062;17.044;2023-02-25T10:33:44;4.65;;;4.20;;
22521;SDS011;11427;51.062;17.044;2023-02-25T10:48:58;4.90;;;4.50;;
22521;SDS011;11427;51.062;17.044;2023-02-25T11:04:07;5.50;;;4.70;;
22521;SDS011;11427;51.062;17.044;2023-02-25T11:34:25;3.78;;;3.40;;
22521;SDS011;11427;51.062;17.044;2023-02-25T15:55:36;8.52;;;6.50;;
22521;SDS011;11427;51.062;17.044;2023-02-25T16:10:40;9.38;;;6.10;;
22521;SDS011;11427;51.062;17.044;2023-02-25T16:40:50;5.40;;;4.28;;
22521;SDS011;11427;51.062;17.044;2023-02-25T16:55:59;5.97;;;4.60;;
22521;SDS011;11427;51.062;17.044;2023-02-25T17:11:01;6.10;;;4.60;;
22521;SDS011;11427;51.062;17.044;2023-02-25T17:26:06;6.15;;;5.55;;
22521;SDS011;11427;51.062;17.044;2023-02-25T17:41:14;11.93;;;7.82;;
22521;SDS011;11427;51.062;17.044;2023-02-25T18:11:33;8.40;;;6.50;;
22521;SDS011;11427;51.062;17.044;2023-02-25T18:26:39;10.10;;;7.60;;
22521;SDS011;11427;51.062;17.044;2023-02-25T18:42:22;9.40;;;6.63;;
22521;SDS011;11427;51.062;17.044;2023-02-25T18:57:25;8.30;;;6.45;;
22521;SDS011;11427;51.062;17.044;2023-02-25T19:12:27;7.70;;;6.78;;
22521;SDS011;11427;51.062;17.044;2023-02-25T19:27:32;11.48;;;6.72;;
22521;SDS011;11427;51.062;17.044;2023-02-25T19:42:34;9.55;;;7.40;;
22521;SDS011;11427;51.062;17.044;2023-02-25T19:57:39;10.00;;;7.18;;
22521;SDS011;11427;51.062;17.044;2023-02-25T20:12:42;9.23;;;6.13;;
22521;SDS011;11427;51.062;17.044;2023-02-25T20:27:46;7.38;;;4.80;;
22521;SDS011;11427;51.062;17.044;2023-02-25T20:42:48;7.53;;;5.10;;
22521;SDS011;11427;51.062;17.044;2023-02-25T20:57:50;7.90;;;5.32;;
22521;SDS011;11427;51.062;17.044;2023-02-25T21:12:52;6.43;;;4.57;;
22521;SDS011;11427;51.062;17.044;2023-02-25T21:27:55;6.82;;;4.88;;
22521;SDS011;11427;51.062;17.044;2023-02-25T21:42:57;6.93;;;4.00;;
22521;SDS011;11427;51.062;17.044;2023-02-25T21:57:59;8.48;;;5.07;;
22521;SDS011;11427;51.062;17.044;2023-02-25T22:13:01;6.70;;;3.70;;
22521;SDS011;11427;51.062;17.044;2023-02-25T22:28:03;5.55;;;3.60;;
22521;SDS011;11427;51.062;17.044;2023-02-25T22:43:05;5.45;;;3.85;;
22521;SDS011;11427;51.062;17.044;2023-02-25T22:58:07;5.65;;;4.13;;
22521;SDS011;11427;51.062;17.044;2023-02-25T23:13:10;6.10;;;3.80;;
22521;SDS011;11427;51.062;17.044;2023-02-25T23:28:12;6.82;;;3.80;;
22521;SDS011;11427;51.062;17.044;2023-02-25T23:43:14;8.40;;;3.88;;
22521;SDS011;11427;51.062;17.044;2023-02-25T23:58:16;6.78;;;3.63;;
